Kezdőlap
METAR-TAF:

METAR-TAF

Repülőterek :

Doha, Katar

földrajzi szélesség: 25-16-23N, földrajzi hosszúság: 51-36-29E, magasság: 4 m

Jelenlegi meteorológiai megfigyelések

A jelentés 31 perccel ezelõtt készült, 01:00 UTC
Észak-északnyugati szél 12 kt
Hőmérséklet 31°C
Páratartalom 36%
Légköri nyomás 1002 hPa
Látótávolság 10 km, vagy több
felhőtlen 1500 m magasságban, és nincs gomolyfelhõ

METAR: OTHH 240100Z AUTO 33012KT CAVOK 31/14 Q1002 NOSIG

Idő: 04:31 (01:31 UTC)

Előrejelzés

A jelentés 6 órával és 52 perccel ezelõtt készült, 18:39 UTC
Az előrejelzés 23-én 18 óra UTC és 24-én 24 óra UTC között érvényes
Észak-északnyugati szél 8 kt
Látótávolság 10 km, vagy több
felhőtlen 1500 m magasságban, és nincs gomolyfelhõ
24-én 07 óra UTC és 24-én 14 óra UTC között ideiglenes
Északkeleti szél 14 kt

TAF: OTHH 231839Z 2318/2424 34008KT CAVOK TEMPO 2407/2414 04014KT

Meteorológiai megfigyelések és előrejelzések több, mint 4000 repülőtéren (METAR és TAF jelentéseket).

A térképen piros és sárga pontok jelzik az elérhető meteorológiai állomásokat.

Mozgassa az egeret a pont fölött, hogy megjelenjen az állomás neve.

Azután kattintson az időjárási megfigyelések és előrejelzések megtekintéséhez.

A térkép megváltoztatása: kattintson a fekete keresztel jelölt zöld gombra ráközelítéshez, a vonallal jelölt zöld gombra távolításhoz, vagy a zöld nyilakra a szomszédos térképek eléréséhez.


METAR-TAF: